createdAt,value
2022-09-27T00:01:08.792Z,10.90
2022-09-27T00:03:40.785Z,10.91
2022-09-27T00:06:41.424Z,10.90
2022-09-27T00:09:10.278Z,10.88
2022-09-27T00:11:42.800Z,10.86
2022-09-27T00:14:13.918Z,10.85
2022-09-27T00:16:43.110Z,10.82
2022-09-27T00:19:22.041Z,10.80
2022-09-27T00:21:50.648Z,10.79
2022-09-27T00:24:21.358Z,10.77
2022-09-27T00:26:50.759Z,10.76
2022-09-27T00:29:19.750Z,10.74
2022-09-27T00:31:47.877Z,10.70
2022-09-27T00:34:24.281Z,10.65
2022-09-27T00:36:52.670Z,10.63
2022-09-27T00:39:20.470Z,10.60
2022-09-27T00:41:48.700Z,10.57
2022-09-27T00:44:25.694Z,10.54
2022-09-27T00:47:14.329Z,10.51
2022-09-27T00:50:08.145Z,10.47
2022-09-27T00:52:42.294Z,10.42
2022-09-27T00:55:16.271Z,10.39
2022-09-27T00:57:46.357Z,10.38
2022-09-27T01:00:15.847Z,10.34
2022-09-27T01:02:50.678Z,10.31
2022-09-27T01:05:22.095Z,10.24
2022-09-27T01:07:50.078Z,10.17
2022-09-27T01:10:19.802Z,10.12
2022-09-27T01:13:15.521Z,10.10
2022-09-27T01:16:00.888Z,10.07
2022-09-27T01:18:43.919Z,10.03
2022-09-27T01:21:14.243Z,9.98
2022-09-27T01:24:12.581Z,9.93
2022-09-27T01:27:17.761Z,9.89
2022-09-27T01:30:23.105Z,9.83
2022-09-27T01:33:05.924Z,9.80
2022-09-27T01:36:11.404Z,9.79
2022-09-27T01:39:03.978Z,9.77
2022-09-27T01:41:44.951Z,9.77
2022-09-27T01:44:51.047Z,9.78
2022-09-27T01:47:22.740Z,9.79
2022-09-27T01:50:06.810Z,9.82
2022-09-27T01:52:49.117Z,9.84
2022-09-27T01:55:20.974Z,9.86
2022-09-27T01:58:05.167Z,9.86
2022-09-27T02:00:34.117Z,9.86
2022-09-27T02:03:14.884Z,9.87
2022-09-27T02:05:55.878Z,9.87
2022-09-27T02:08:30.331Z,9.89
2022-09-27T02:11:01.928Z,9.91
2022-09-27T02:13:40.624Z,9.93
2022-09-27T02:16:47.014Z,9.96
2022-09-27T02:19:20.930Z,9.98
2022-09-27T02:22:16.846Z,9.97
2022-09-27T02:24:54.854Z,9.96
2022-09-27T02:28:03.779Z,9.96
2022-09-27T02:30:32.292Z,9.93
2022-09-27T02:33:00.224Z,9.93
2022-09-27T02:35:32.602Z,9.94
2022-09-27T02:38:01.660Z,9.94
2022-09-27T02:40:36.048Z,9.94
2022-09-27T02:43:05.932Z,9.93
2022-09-27T02:45:49.083Z,9.92
2022-09-27T02:48:19.675Z,9.92
2022-09-27T02:51:01.023Z,9.92
2022-09-27T02:53:42.167Z,9.92
2022-09-27T02:56:24.395Z,9.92
2022-09-27T02:59:27.323Z,9.93
2022-09-27T03:02:31.473Z,9.93
2022-09-27T03:05:18.144Z,9.94
2022-09-27T03:07:46.523Z,9.94
2022-09-27T03:10:26.571Z,9.94
2022-09-27T03:12:55.705Z,9.95
2022-09-27T03:15:23.431Z,9.97
2022-09-27T03:17:51.191Z,9.98
2022-09-27T03:20:19.159Z,9.98
2022-09-27T03:22:47.028Z,9.97
2022-09-27T03:25:14.995Z,9.99
2022-09-27T03:27:44.602Z,10.00
2022-09-27T03:30:14.470Z,9.99
2022-09-27T03:32:45.963Z,10.00
2022-09-27T03:35:14.508Z,10.01
2022-09-27T03:37:42.411Z,10.01
2022-09-27T03:40:12.585Z,10.01
2022-09-27T03:42:40.515Z,10.01
2022-09-27T03:45:08.868Z,10.01
2022-09-27T03:47:41.349Z,10.01
2022-09-27T03:50:11.736Z,10.02
2022-09-27T03:52:39.639Z,10.04
2022-09-27T03:55:08.184Z,10.06
2022-09-27T03:57:36.023Z,10.06
2022-09-27T04:00:07.234Z,10.06
2022-09-27T04:02:35.053Z,10.03
2022-09-27T04:05:02.962Z,10.03
2022-09-27T04:07:31.238Z,10.04
2022-09-27T04:09:59.007Z,10.07
2022-09-27T04:12:26.868Z,10.06
2022-09-27T04:14:55.450Z,10.03
2022-09-27T04:17:23.212Z,9.99
2022-09-27T04:19:52.001Z,9.98
2022-09-27T04:22:19.764Z,9.98
2022-09-27T04:24:47.533Z,9.98
2022-09-27T04:27:16.208Z,9.99
2022-09-27T04:29:45.870Z,9.99
2022-09-27T04:32:14.626Z,9.99
2022-09-27T04:35:01.208Z,9.98
2022-09-27T04:37:29.384Z,9.96
2022-09-27T04:39:57.149Z,9.92
2022-09-27T04:42:25.213Z,9.92
2022-09-27T04:44:52.977Z,9.95
2022-09-27T04:47:21.366Z,9.96
2022-09-27T04:49:49.807Z,9.97
2022-09-27T04:52:17.596Z,9.96
2022-09-27T04:54:45.363Z,9.92
2022-09-27T04:57:14.596Z,9.93
2022-09-27T04:59:42.934Z,9.94
2022-09-27T05:02:10.724Z,9.95
2022-09-27T05:04:38.562Z,9.97
2022-09-27T05:07:06.325Z,10.00
2022-09-27T05:09:34.089Z,10.02
2022-09-27T05:12:02.770Z,10.01
2022-09-27T05:14:30.539Z,10.02
2022-09-27T05:16:58.335Z,10.03
2022-09-27T05:19:26.166Z,10.03
2022-09-27T05:21:53.930Z,10.00
2022-09-27T05:24:21.694Z,9.97
2022-09-27T05:26:49.559Z,9.95
2022-09-27T05:29:17.935Z,9.93
2022-09-27T05:31:45.902Z,9.91
2022-09-27T05:34:13.883Z,9.86
2022-09-27T05:36:41.740Z,9.83
2022-09-27T05:39:09.736Z,9.84
2022-09-27T05:41:37.777Z,9.84
2022-09-27T05:44:06.152Z,9.82
2022-09-27T05:46:34.075Z,9.80
2022-09-27T05:49:02.089Z,9.81
2022-09-27T05:51:29.965Z,9.82
2022-09-27T05:53:57.927Z,9.80
2022-09-27T05:56:25.896Z,9.78
2022-09-27T05:58:53.667Z,9.75
2022-09-27T06:01:21.490Z,9.75
2022-09-27T06:03:50.202Z,9.77
2022-09-27T06:06:17.965Z,9.79
2022-09-27T06:08:45.766Z,9.82
2022-09-27T06:11:13.802Z,9.87
2022-09-27T06:13:41.980Z,9.89
2022-09-27T06:16:11.747Z,9.92
2022-09-27T06:18:39.857Z,9.95
2022-09-27T06:21:07.822Z,10.00
2022-09-27T06:23:35.895Z,10.03
2022-09-27T06:26:06.319Z,10.07
2022-09-27T06:28:37.358Z,10.09
2022-09-27T06:31:09.335Z,10.12
2022-09-27T06:33:37.286Z,10.17
2022-09-27T06:36:07.247Z,10.22
2022-09-27T06:38:35.844Z,10.23
2022-09-27T06:41:06.722Z,10.26
2022-09-27T06:43:34.590Z,10.30
2022-09-27T06:46:07.227Z,10.33
2022-09-27T06:48:37.694Z,10.35
2022-09-27T06:51:06.274Z,10.37
2022-09-27T06:53:34.349Z,10.41
2022-09-27T06:56:02.899Z,10.47
2022-09-27T06:58:49.435Z,10.50
2022-09-27T07:01:18.408Z,10.53
2022-09-27T07:03:50.674Z,10.57
2022-09-27T07:06:22.655Z,10.60
2022-09-27T07:08:52.350Z,10.64
2022-09-27T07:11:23.675Z,10.69
2022-09-27T07:13:52.188Z,10.74
2022-09-27T07:16:20.016Z,10.80
2022-09-27T07:18:50.386Z,10.85
2022-09-27T07:21:18.238Z,10.88
2022-09-27T07:23:46.719Z,10.89
2022-09-27T07:26:14.700Z,10.92
2022-09-27T07:28:42.653Z,10.95
2022-09-27T07:31:10.910Z,10.98
2022-09-27T07:33:43.186Z,11.01
2022-09-27T07:36:13.829Z,11.04
2022-09-27T07:38:42.086Z,11.08
2022-09-27T07:41:14.315Z,11.12
2022-09-27T07:43:45.207Z,11.15
2022-09-27T07:46:13.785Z,11.17
2022-09-27T07:48:41.658Z,11.19
2022-09-27T07:51:11.059Z,11.22
2022-09-27T07:53:39.229Z,11.24
2022-09-27T07:56:07.197Z,11.25
2022-09-27T07:58:35.066Z,11.27
2022-09-27T08:01:03.194Z,11.28
2022-09-27T08:03:31.922Z,11.30
2022-09-27T08:06:03.309Z,11.30
2022-09-27T08:08:31.573Z,11.32
2022-09-27T08:10:59.512Z,11.35
2022-09-27T08:13:27.275Z,11.35
2022-09-27T08:15:55.146Z,11.38
2022-09-27T08:18:24.959Z,11.41
2022-09-27T08:20:52.833Z,11.45
2022-09-27T08:23:20.889Z,11.48
2022-09-27T08:25:57.567Z,11.51
2022-09-27T08:28:27.371Z,11.56
2022-09-27T08:30:57.635Z,11.61
2022-09-27T08:33:31.287Z,11.63
2022-09-27T08:36:02.049Z,11.65
2022-09-27T08:38:29.792Z,11.65
2022-09-27T08:41:07.079Z,11.68
2022-09-27T08:44:06.655Z,11.73
2022-09-27T08:46:54.062Z,11.84
2022-09-27T08:49:28.330Z,11.90
2022-09-27T08:51:58.550Z,11.93
2022-09-27T08:54:31.633Z,11.96
2022-09-27T08:57:07.382Z,12.01
2022-09-27T08:59:43.910Z,12.06
2022-09-27T09:02:20.637Z,12.10
2022-09-27T09:04:53.884Z,12.14
2022-09-27T09:07:32.593Z,12.17
2022-09-27T09:10:12.179Z,12.24
2022-09-27T09:12:48.138Z,12.27
2022-09-27T09:15:54.459Z,12.28
2022-09-27T09:18:50.016Z,12.33
2022-09-27T09:21:35.967Z,12.33
2022-09-27T09:24:23.633Z,12.40
2022-09-27T09:27:05.629Z,12.46
2022-09-27T09:29:51.005Z,12.50
2022-09-27T09:32:46.826Z,12.55
2022-09-27T09:35:22.889Z,12.64
2022-09-27T09:37:59.582Z,12.69
2022-09-27T09:40:40.943Z,12.71
2022-09-27T09:43:11.571Z,12.77
2022-09-27T09:45:45.223Z,12.85
2022-09-27T09:48:22.767Z,12.88
2022-09-27T09:50:55.238Z,12.86
2022-09-27T09:53:44.403Z,12.88
2022-09-27T09:56:30.196Z,12.91
2022-09-27T09:59:02.763Z,12.95
2022-09-27T10:01:36.375Z,12.94
2022-09-27T10:04:04.679Z,13.00
2022-09-27T10:06:33.120Z,13.03
2022-09-27T10:09:00.983Z,13.04
2022-09-27T10:11:37.365Z,13.04
2022-09-27T10:14:14.074Z,13.03
2022-09-27T10:16:48.034Z,13.00
2022-09-27T10:19:27.032Z,12.98
2022-09-27T10:22:01.849Z,12.95
2022-09-27T10:24:29.859Z,12.90
2022-09-27T10:27:00.814Z,12.86
2022-09-27T10:29:37.725Z,12.82
2022-09-27T10:32:33.387Z,12.82
2022-09-27T10:35:30.541Z,12.84
2022-09-27T10:38:20.589Z,12.80
2022-09-27T10:40:54.062Z,12.75
2022-09-27T10:43:36.227Z,12.75
2022-09-27T10:46:07.047Z,12.73
2022-09-27T10:48:36.559Z,12.72
2022-09-27T10:51:07.105Z,12.76
2022-09-27T10:53:37.003Z,12.79
2022-09-27T10:56:05.174Z,12.81
2022-09-27T10:58:38.303Z,12.83
2022-09-27T11:01:09.969Z,12.81
2022-09-27T11:03:46.691Z,12.83
2022-09-27T11:06:23.466Z,12.85
2022-09-27T11:08:53.484Z,12.84
2022-09-27T11:11:26.569Z,12.81
2022-09-27T11:14:05.187Z,12.82
2022-09-27T11:16:35.832Z,12.87
2022-09-27T11:19:39.420Z,12.90
2022-09-27T11:22:35.963Z,12.92
2022-09-27T11:25:40.074Z,12.90
2022-09-27T11:28:54.921Z,12.86
2022-09-27T11:31:31.467Z,12.83
2022-09-27T11:34:40.333Z,12.85
2022-09-27T11:37:23.048Z,12.88
2022-09-27T11:40:09.552Z,12.93
2022-09-27T11:42:45.529Z,13.00
2022-09-27T11:45:56.243Z,13.07
2022-09-27T11:48:39.402Z,13.18
2022-09-27T11:51:25.392Z,13.31
2022-09-27T11:54:14.835Z,13.42
2022-09-27T11:57:26.627Z,13.49
2022-09-27T11:59:54.325Z,13.53
2022-09-27T12:02:40.827Z,13.61
2022-09-27T12:05:27.841Z,13.76
2022-09-27T12:08:07.607Z,13.91
2022-09-27T12:10:40.463Z,14.06
2022-09-27T12:13:13.865Z,14.19
2022-09-27T12:15:46.314Z,14.27
2022-09-27T12:18:29.556Z,14.30
2022-09-27T12:21:01.314Z,14.33
2022-09-27T12:23:50.072Z,14.38
2022-09-27T12:26:35.855Z,14.42
2022-09-27T12:29:15.598Z,14.46
2022-09-27T12:31:53.089Z,14.52
2022-09-27T12:34:28.840Z,14.63
2022-09-27T12:37:05.107Z,14.77
2022-09-27T12:39:55.909Z,14.91
2022-09-27T12:42:50.294Z,15.05
2022-09-27T12:45:31.982Z,15.19
2022-09-27T12:48:05.794Z,15.27
2022-09-27T12:51:07.761Z,15.32
2022-09-27T12:53:59.784Z,15.39
2022-09-27T12:56:36.460Z,15.45
2022-09-27T12:59:17.788Z,15.50
2022-09-27T13:02:24.847Z,15.49
2022-09-27T13:05:22.641Z,15.55
2022-09-27T13:08:18.001Z,15.69
2022-09-27T13:11:10.851Z,15.74
2022-09-27T13:13:40.059Z,15.71
2022-09-27T13:16:08.990Z,15.67
2022-09-27T13:18:39.318Z,15.61
2022-09-27T13:21:09.686Z,15.56
2022-09-27T13:23:37.447Z,15.53
2022-09-27T13:26:34.394Z,15.48
2022-09-27T13:29:03.693Z,15.43
2022-09-27T13:32:10.473Z,15.40
2022-09-27T13:34:48.099Z,15.37
2022-09-27T13:37:47.162Z,15.38
2022-09-27T13:40:28.147Z,15.36
2022-09-27T13:43:11.258Z,15.34
2022-09-27T13:45:49.673Z,15.35
2022-09-27T13:48:45.490Z,15.37
2022-09-27T13:51:19.217Z,15.36
2022-09-27T13:54:10.069Z,15.34
2022-09-27T13:56:38.583Z,15.33
2022-09-27T13:59:10.953Z,15.32
2022-09-27T14:02:12.759Z,15.34
2022-09-27T14:04:50.917Z,15.35
2022-09-27T14:07:25.338Z,15.35
2022-09-27T14:10:00.882Z,15.32
2022-09-27T14:12:34.604Z,15.31
2022-09-27T14:15:03.769Z,15.29
2022-09-27T14:17:33.247Z,15.25
2022-09-27T14:20:04.054Z,15.21
2022-09-27T14:22:32.093Z,15.20
2022-09-27T14:25:00.571Z,15.18
2022-09-27T14:27:31.103Z,15.15
2022-09-27T14:30:21.799Z,15.13
2022-09-27T14:32:52.122Z,15.10
2022-09-27T14:35:42.719Z,15.08
2022-09-27T14:38:35.910Z,15.06
2022-09-27T14:41:04.018Z,15.03
2022-09-27T14:43:33.252Z,15.01
2022-09-27T14:46:09.322Z,14.96
2022-09-27T14:48:40.257Z,14.90
2022-09-27T14:51:14.617Z,14.86
2022-09-27T14:53:46.010Z,14.81
2022-09-27T14:56:37.762Z,14.76
2022-09-27T14:59:17.443Z,14.72
2022-09-27T15:01:50.625Z,14.69
2022-09-27T15:04:19.655Z,14.71
2022-09-27T15:06:48.413Z,14.74
2022-09-27T15:09:18.673Z,14.77
2022-09-27T15:11:54.601Z,14.80
2022-09-27T15:14:24.066Z,14.82
2022-09-27T15:16:52.862Z,14.83
2022-09-27T15:19:27.231Z,14.83
2022-09-27T15:21:57.453Z,14.82
2022-09-27T15:24:45.807Z,14.82
2022-09-27T15:27:26.338Z,14.79
2022-09-27T15:29:58.614Z,14.76
2022-09-27T15:32:28.644Z,14.72
2022-09-27T15:34:57.848Z,14.68
2022-09-27T15:37:38.061Z,14.63
2022-09-27T15:40:18.962Z,14.55
2022-09-27T15:43:02.708Z,14.49
2022-09-27T15:45:34.070Z,14.43
2022-09-27T15:48:29.164Z,14.37
2022-09-27T15:50:56.979Z,14.30
2022-09-27T15:53:36.976Z,14.26
2022-09-27T15:56:09.351Z,14.21
2022-09-27T15:58:37.487Z,14.15
2022-09-27T16:01:05.906Z,14.11
2022-09-27T16:03:34.887Z,14.07
2022-09-27T16:06:05.215Z,14.02
2022-09-27T16:08:33.102Z,13.96
2022-09-27T16:11:03.509Z,13.91
2022-09-27T16:13:33.155Z,13.85
2022-09-27T16:16:03.561Z,13.78
2022-09-27T16:18:32.963Z,13.71
2022-09-27T16:21:00.801Z,13.65
2022-09-27T16:23:28.664Z,13.59
2022-09-27T16:25:56.702Z,13.53
2022-09-27T16:28:24.607Z,13.47
2022-09-27T16:30:52.539Z,13.40
2022-09-27T16:33:20.434Z,13.34
2022-09-27T16:35:50.316Z,13.29
2022-09-27T16:38:18.157Z,13.25
2022-09-27T16:40:46.006Z,13.23
2022-09-27T16:43:13.843Z,13.21
2022-09-27T16:45:41.708Z,13.20
2022-09-27T16:48:09.580Z,13.19
2022-09-27T16:50:56.382Z,13.18
2022-09-27T16:53:24.450Z,13.18
2022-09-27T16:55:52.298Z,13.17
2022-09-27T16:58:20.081Z,13.15
2022-09-27T17:00:47.864Z,13.17
2022-09-27T17:03:16.017Z,13.16
2022-09-27T17:05:43.782Z,13.16
2022-09-27T17:08:11.682Z,13.15
2022-09-27T17:10:45.358Z,13.14
2022-09-27T17:13:13.637Z,13.15
2022-09-27T17:15:42.260Z,13.15
2022-09-27T17:18:12.325Z,13.15
2022-09-27T17:20:40.191Z,13.15
2022-09-27T17:23:07.956Z,13.13
2022-09-27T17:25:35.818Z,13.10
2022-09-27T17:28:03.587Z,13.06
2022-09-27T17:30:31.860Z,13.02
2022-09-27T17:32:59.626Z,12.97
2022-09-27T17:35:27.493Z,12.92
2022-09-27T17:37:55.264Z,12.86
2022-09-27T17:40:23.133Z,12.80
2022-09-27T17:42:51.293Z,12.74
2022-09-27T17:45:19.160Z,12.69
2022-09-27T17:48:05.763Z,12.64
2022-09-27T17:50:33.724Z,12.59
2022-09-27T17:53:01.592Z,12.56
2022-09-27T17:55:29.909Z,12.52
2022-09-27T17:57:57.673Z,12.48
2022-09-27T18:00:25.426Z,12.45
2022-09-27T18:02:53.556Z,12.42
2022-09-27T18:05:22.045Z,12.38
2022-09-27T18:07:50.123Z,12.34
2022-09-27T18:10:18.034Z,12.30
2022-09-27T18:12:46.092Z,12.27
2022-09-27T18:15:17.195Z,12.25
2022-09-27T18:17:45.949Z,12.23
2022-09-27T18:20:13.966Z,12.19
2022-09-27T18:22:41.946Z,12.16
2022-09-27T18:25:11.678Z,12.15
2022-09-27T18:27:40.985Z,12.12
2022-09-27T18:30:09.770Z,12.09
2022-09-27T18:32:37.482Z,12.08
2022-09-27T18:35:07.060Z,12.06
2022-09-27T18:37:35.129Z,12.05
2022-09-27T18:40:03.392Z,12.03
2022-09-27T18:42:31.539Z,12.01
2022-09-27T18:44:59.626Z,12.00
2022-09-27T18:47:27.598Z,11.99
2022-09-27T18:49:55.476Z,11.98
2022-09-27T18:52:23.338Z,11.96
2022-09-27T18:54:51.247Z,11.96
2022-09-27T18:57:19.969Z,11.94
2022-09-27T18:59:49.631Z,11.92
2022-09-27T19:02:17.829Z,11.92
2022-09-27T19:04:45.669Z,11.91
2022-09-27T19:07:13.440Z,11.91
2022-09-27T19:09:41.399Z,11.90
2022-09-27T19:12:09.188Z,11.90
2022-09-27T19:14:37.256Z,11.92
2022-09-27T19:17:05.101Z,11.92
2022-09-27T19:19:33.068Z,11.92
2022-09-27T19:22:01.034Z,11.92
2022-09-27T19:24:28.904Z,11.92
2022-09-27T19:26:57.589Z,11.90
2022-09-27T19:29:25.654Z,11.89
2022-09-27T19:31:53.464Z,11.89
2022-09-27T19:34:21.171Z,11.89
2022-09-27T19:36:48.873Z,11.91
2022-09-27T19:39:16.908Z,11.92
2022-09-27T19:41:45.819Z,11.92
2022-09-27T19:44:14.394Z,11.92
2022-09-27T19:46:42.932Z,11.90
2022-09-27T19:49:10.795Z,11.88
2022-09-27T19:51:38.699Z,11.88
2022-09-27T19:54:06.493Z,11.88
2022-09-27T19:56:35.047Z,11.87
2022-09-27T19:59:07.044Z,11.89
2022-09-27T20:01:35.817Z,11.90
2022-09-27T20:04:03.680Z,11.92
2022-09-27T20:06:32.858Z,11.94
2022-09-27T20:09:03.151Z,11.95
2022-09-27T20:11:31.507Z,11.96
2022-09-27T20:14:02.409Z,11.96
2022-09-27T20:16:31.344Z,11.96
2022-09-27T20:19:01.401Z,11.98
2022-09-27T20:21:32.768Z,11.98
2022-09-27T20:24:02.258Z,11.99
2022-09-27T20:26:31.983Z,12.00
2022-09-27T20:29:01.467Z,12.01
2022-09-27T20:31:36.951Z,12.00
2022-09-27T20:34:09.584Z,11.99
2022-09-27T20:36:39.972Z,11.93
2022-09-27T20:39:10.026Z,11.96
2022-09-27T20:41:46.140Z,11.97
2022-09-27T20:44:19.068Z,11.96
2022-09-27T20:46:47.931Z,11.95
2022-09-27T20:49:19.483Z,11.95
2022-09-27T20:51:49.166Z,11.92
2022-09-27T20:54:17.290Z,11.91
2022-09-27T20:56:48.146Z,11.89
2022-09-27T20:59:24.696Z,11.88
2022-09-27T21:01:53.569Z,11.88
2022-09-27T21:04:22.505Z,11.87
2022-09-27T21:06:51.907Z,11.87
2022-09-27T21:09:20.079Z,11.87
2022-09-27T21:11:52.123Z,11.86
2022-09-27T21:14:20.205Z,11.86
2022-09-27T21:16:48.053Z,11.86
2022-09-27T21:19:15.898Z,11.85
2022-09-27T21:21:43.782Z,11.86
2022-09-27T21:24:11.651Z,11.86
2022-09-27T21:26:39.513Z,11.85
2022-09-27T21:29:09.468Z,11.80
2022-09-27T21:31:38.259Z,11.77
2022-09-27T21:34:06.691Z,11.76
2022-09-27T21:36:37.400Z,11.76
2022-09-27T21:39:08.716Z,11.75
2022-09-27T21:41:39.038Z,11.75
2022-09-27T21:44:07.904Z,11.77
2022-09-27T21:46:40.331Z,11.81
2022-09-27T21:49:08.328Z,11.81
2022-09-27T21:51:41.833Z,11.80
2022-09-27T21:54:13.993Z,11.81
2022-09-27T21:56:43.603Z,11.82
2022-09-27T21:59:15.196Z,11.84
2022-09-27T22:01:45.014Z,11.84
2022-09-27T22:04:13.336Z,11.85
2022-09-27T22:06:41.629Z,11.84
2022-09-27T22:09:14.382Z,11.82
2022-09-27T22:11:44.380Z,11.78
2022-09-27T22:14:16.573Z,11.77
2022-09-27T22:16:44.441Z,11.76
2022-09-27T22:19:14.081Z,11.74
2022-09-27T22:21:42.420Z,11.73
2022-09-27T22:24:14.894Z,11.74
2022-09-27T22:26:47.271Z,11.76
2022-09-27T22:29:15.504Z,11.77
2022-09-27T22:31:43.596Z,11.78
2022-09-27T22:34:29.262Z,11.78
2022-09-27T22:36:59.367Z,11.78
2022-09-27T22:39:27.624Z,11.78
2022-09-27T22:41:55.602Z,11.78
2022-09-27T22:44:23.647Z,11.77
2022-09-27T22:46:51.937Z,11.77
2022-09-27T22:49:19.780Z,11.77
2022-09-27T22:51:47.543Z,11.77
2022-09-27T22:54:15.302Z,11.76
2022-09-27T22:56:43.055Z,11.73
2022-09-27T22:59:10.831Z,11.72
2022-09-27T23:01:38.687Z,11.70
2022-09-27T23:04:06.525Z,11.67
2022-09-27T23:06:34.419Z,11.65
2022-09-27T23:09:02.906Z,11.64
2022-09-27T23:11:30.763Z,11.63
2022-09-27T23:13:58.525Z,11.63
2022-09-27T23:16:27.038Z,11.63
2022-09-27T23:18:56.880Z,11.62
2022-09-27T23:21:26.798Z,11.60
2022-09-27T23:23:59.886Z,11.59
2022-09-27T23:26:28.808Z,11.54
2022-09-27T23:29:00.885Z,11.51
2022-09-27T23:31:31.477Z,11.50
2022-09-27T23:34:03.155Z,11.48
2022-09-27T23:36:31.028Z,11.46
2022-09-27T23:39:00.715Z,11.42
2022-09-27T23:41:29.108Z,11.40
2022-09-27T23:43:57.295Z,11.35
2022-09-27T23:46:25.461Z,11.31
2022-09-27T23:48:53.693Z,11.26
2022-09-27T23:51:21.534Z,11.21
2022-09-27T23:53:49.563Z,11.16
2022-09-27T23:56:17.640Z,11.14
2022-09-27T23:58:46.468Z,11.13
